createdAt,value
2022-09-24T00:00:33.914Z,11.00
2022-09-24T00:01:33.864Z,11.60
2022-09-24T00:02:33.948Z,9.80
2022-09-24T00:03:33.782Z,11.60
2022-09-24T00:04:33.904Z,10.50
2022-09-24T00:05:33.786Z,11.20
2022-09-24T00:06:33.818Z,10.50
2022-09-24T00:07:33.786Z,12.40
2022-09-24T00:08:33.766Z,12.10
2022-09-24T00:09:33.760Z,13.20
2022-09-24T00:10:33.759Z,8.90
2022-09-24T00:11:33.773Z,10.40
2022-09-24T00:12:33.737Z,11.40
2022-09-24T00:13:33.753Z,10.80
2022-09-24T00:14:33.732Z,11.60
2022-09-24T00:15:34.601Z,10.10
2022-09-24T00:16:33.792Z,9.20
2022-09-24T00:17:33.713Z,9.30
2022-09-24T00:18:33.703Z,8.90
2022-09-24T00:19:33.706Z,9.10
2022-09-24T00:20:33.737Z,10.50
2022-09-24T00:21:33.670Z,9.80
2022-09-24T00:22:33.710Z,11.40
2022-09-24T00:23:33.683Z,10.90
2022-09-24T00:24:33.772Z,10.80
2022-09-24T00:25:33.646Z,10.50
2022-09-24T00:26:34.567Z,11.30
2022-09-24T00:27:33.650Z,10.10
2022-09-24T00:28:33.742Z,9.60
2022-09-24T00:29:33.630Z,10.70
2022-09-24T00:30:33.626Z,9.90
2022-09-24T00:31:33.709Z,17.60
2022-09-24T00:32:33.637Z,12.40
2022-09-24T00:33:33.617Z,11.30
2022-09-24T00:34:33.599Z,10.00
2022-09-24T00:35:33.595Z,9.90
2022-09-24T00:36:33.600Z,8.90
2022-09-24T00:37:33.609Z,9.50
2022-09-24T00:38:33.574Z,10.90
2022-09-24T00:39:33.596Z,8.30
2022-09-24T00:40:33.670Z,9.30
2022-09-24T00:41:33.569Z,8.90
2022-09-24T00:42:33.554Z,9.70
2022-09-24T00:43:33.558Z,10.30
2022-09-24T00:44:33.737Z,9.30
2022-09-24T00:45:33.541Z,10.20
2022-09-24T00:46:33.762Z,10.70
2022-09-24T00:47:33.568Z,12.70
2022-09-24T00:48:33.649Z,10.30
2022-09-24T00:49:33.506Z,10.30
2022-09-24T00:50:34.607Z,11.20
2022-09-24T00:51:33.545Z,10.90
2022-09-24T00:52:33.593Z,9.80
2022-09-24T00:53:33.495Z,10.70
2022-09-24T00:54:33.589Z,12.40
2022-09-24T00:55:34.057Z,9.20
2022-09-24T00:56:33.486Z,10.00
2022-09-24T00:57:33.479Z,10.30
2022-09-24T00:58:33.465Z,11.80
2022-09-24T00:59:33.461Z,9.40
2022-09-24T01:00:33.503Z,9.40
2022-09-24T01:01:33.509Z,11.20
2022-09-24T01:02:33.473Z,11.70
2022-09-24T01:03:33.465Z,9.00
2022-09-24T01:04:33.437Z,10.10
2022-09-24T01:05:33.618Z,9.30
2022-09-24T01:06:33.493Z,12.70
2022-09-24T01:07:33.403Z,9.50
2022-09-24T01:08:33.476Z,8.90
2022-09-24T01:09:33.414Z,9.80
2022-09-24T01:10:33.529Z,9.50
2022-09-24T01:11:33.381Z,10.70
2022-09-24T01:12:33.469Z,11.00
2022-09-24T01:13:33.369Z,11.00
2022-09-24T01:14:33.387Z,9.50
2022-09-24T01:15:33.383Z,10.50
2022-09-24T01:16:33.425Z,10.50
2022-09-24T01:17:33.336Z,9.80
2022-09-24T01:18:33.341Z,8.80
2022-09-24T01:19:33.333Z,9.60
2022-09-24T01:20:33.358Z,9.60
2022-09-24T01:21:33.414Z,11.80
2022-09-24T01:22:33.324Z,8.40
2022-09-24T01:23:33.326Z,11.00
2022-09-24T01:24:33.311Z,12.50
2022-09-24T01:25:33.358Z,10.00
2022-09-24T01:26:33.295Z,12.70
2022-09-24T01:27:33.291Z,10.30
2022-09-24T01:28:33.316Z,9.60
2022-09-24T01:29:33.289Z,11.10
2022-09-24T01:30:33.274Z,9.70
2022-09-24T01:31:33.346Z,10.70
2022-09-24T01:32:33.286Z,9.90
2022-09-24T01:33:33.252Z,9.40
2022-09-24T01:34:33.251Z,12.20
2022-09-24T01:35:33.235Z,9.30
2022-09-24T01:36:33.250Z,10.50
2022-09-24T01:37:33.214Z,11.30
2022-09-24T01:38:33.295Z,9.80
2022-09-24T01:39:33.226Z,10.20
2022-09-24T01:40:33.262Z,9.00
2022-09-24T01:41:33.211Z,9.40
2022-09-24T01:42:33.206Z,9.00
2022-09-24T01:43:33.209Z,8.20
2022-09-24T01:44:33.178Z,8.60
2022-09-24T01:45:34.058Z,9.90
2022-09-24T01:46:33.252Z,9.30
2022-09-24T01:47:35.034Z,8.20
2022-09-24T01:48:34.216Z,9.40
2022-09-24T01:49:33.175Z,7.80
2022-09-24T01:50:33.148Z,8.00
2022-09-24T01:51:33.156Z,9.10
2022-09-24T01:52:33.146Z,7.90
2022-09-24T01:53:33.125Z,7.30
2022-09-24T01:54:33.116Z,9.70
2022-09-24T01:55:33.118Z,9.40
2022-09-24T01:56:33.121Z,9.00
2022-09-24T01:57:33.124Z,9.30
2022-09-24T01:58:33.115Z,9.30
2022-09-24T01:59:33.084Z,8.80
2022-09-24T02:00:33.187Z,7.70
2022-09-24T02:01:33.166Z,8.40
2022-09-24T02:02:33.171Z,10.10
2022-09-24T02:03:33.086Z,9.90
2022-09-24T02:04:33.064Z,9.60
2022-09-24T02:05:33.068Z,8.30
2022-09-24T02:06:33.052Z,8.40
2022-09-24T02:07:33.050Z,9.10
2022-09-24T02:08:33.062Z,7.40
2022-09-24T02:09:33.034Z,7.00
2022-09-24T02:10:33.037Z,8.90
2022-09-24T02:11:33.037Z,6.90
2022-09-24T02:12:33.012Z,8.50
2022-09-24T02:13:33.033Z,7.30
2022-09-24T02:14:32.999Z,9.80
2022-09-24T02:15:33.088Z,8.50
2022-09-24T02:16:33.008Z,9.10
2022-09-24T02:17:33.994Z,8.30
2022-09-24T02:18:32.963Z,11.80
2022-09-24T02:19:33.985Z,11.90
2022-09-24T02:20:32.970Z,7.80
2022-09-24T02:21:32.969Z,10.00
2022-09-24T02:22:32.945Z,10.00
2022-09-24T02:23:32.942Z,10.90
2022-09-24T02:24:32.967Z,10.20
2022-09-24T02:25:32.928Z,9.60
2022-09-24T02:26:33.573Z,9.70
2022-09-24T02:27:32.925Z,9.80
2022-09-24T02:28:32.954Z,7.80
2022-09-24T02:29:33.030Z,7.50
2022-09-24T02:30:32.916Z,9.00
2022-09-24T02:31:32.955Z,9.70
2022-09-24T02:32:32.897Z,10.70
2022-09-24T02:33:32.889Z,9.10
2022-09-24T02:34:32.903Z,7.10
2022-09-24T02:35:32.941Z,7.80
2022-09-24T02:36:32.875Z,8.30
2022-09-24T02:37:32.868Z,9.20
2022-09-24T02:38:32.888Z,10.90
2022-09-24T02:39:32.849Z,9.90
2022-09-24T02:40:32.904Z,8.70
2022-09-24T02:41:32.841Z,9.00
2022-09-24T02:42:32.850Z,8.80
2022-09-24T02:43:32.835Z,8.80
2022-09-24T02:44:32.826Z,9.20
2022-09-24T02:45:32.832Z,9.30
2022-09-24T02:46:32.845Z,9.60
2022-09-24T02:47:32.809Z,9.10
2022-09-24T02:48:32.789Z,7.90
2022-09-24T02:49:32.793Z,9.20
2022-09-24T02:50:32.809Z,8.80
2022-09-24T02:51:32.782Z,9.50
2022-09-24T02:52:32.776Z,10.00
2022-09-24T02:53:32.789Z,9.40
2022-09-24T02:54:32.771Z,7.50
2022-09-24T02:55:32.765Z,8.70
2022-09-24T02:56:32.762Z,9.90
2022-09-24T02:57:32.741Z,10.40
2022-09-24T02:58:32.748Z,8.80
2022-09-24T02:59:32.733Z,10.20
2022-09-24T03:00:32.734Z,10.10
2022-09-24T03:02:48.097Z,9.70
2022-09-24T03:03:49.034Z,10.50
2022-09-24T03:04:49.032Z,11.40
2022-09-24T03:05:49.013Z,10.80
2022-09-24T03:06:49.008Z,10.90
2022-09-24T03:07:49.008Z,11.10
2022-09-24T03:08:48.985Z,11.00
2022-09-24T03:09:48.968Z,10.30
2022-09-24T03:10:48.993Z,9.90
2022-09-24T03:11:48.985Z,11.80
2022-09-24T03:12:48.968Z,9.30
2022-09-24T03:13:48.961Z,10.50
2022-09-24T03:14:48.945Z,10.00
2022-09-24T03:15:48.988Z,9.40
2022-09-24T03:16:48.961Z,10.00
2022-09-24T03:17:48.946Z,9.80
2022-09-24T03:18:48.932Z,10.70
2022-09-24T03:19:48.938Z,9.00
2022-09-24T03:20:48.913Z,8.80
2022-09-24T03:21:48.904Z,8.80
2022-09-24T03:22:48.924Z,9.60
2022-09-24T03:23:48.892Z,9.50
2022-09-24T03:24:48.884Z,10.60
2022-09-24T03:25:48.886Z,10.70
2022-09-24T03:26:48.886Z,13.20
2022-09-24T03:27:48.887Z,9.50
2022-09-24T03:28:48.888Z,10.60
2022-09-24T03:29:48.858Z,9.60
2022-09-24T03:30:48.849Z,9.60
2022-09-24T03:31:48.926Z,8.80
2022-09-24T03:32:48.859Z,9.50
2022-09-24T03:33:48.828Z,9.00
2022-09-24T03:34:48.876Z,10.70
2022-09-24T03:35:48.817Z,10.00
2022-09-24T03:36:48.826Z,9.80
2022-09-24T03:37:49.386Z,10.00
2022-09-24T03:38:49.792Z,9.30
2022-09-24T03:39:48.793Z,9.30
2022-09-24T03:40:48.856Z,8.70
2022-09-24T03:41:48.778Z,10.40
2022-09-24T03:42:48.764Z,8.90
2022-09-24T03:43:48.777Z,8.40
2022-09-24T03:44:48.763Z,9.10
2022-09-24T03:45:48.761Z,10.80
2022-09-24T03:46:48.796Z,9.90
2022-09-24T03:47:48.736Z,10.80
2022-09-24T03:48:48.736Z,10.40
2022-09-24T03:49:48.737Z,11.50
2022-09-24T03:50:48.733Z,11.80
2022-09-24T03:51:48.731Z,13.00
2022-09-24T03:52:48.713Z,12.40
2022-09-24T03:53:48.731Z,10.30
2022-09-24T03:54:48.703Z,10.40
2022-09-24T03:55:48.687Z,12.50
2022-09-24T03:56:48.687Z,10.10
2022-09-24T03:57:48.699Z,12.10
2022-09-24T03:58:48.701Z,13.70
2022-09-24T03:59:48.670Z,12.70
2022-09-24T04:00:48.650Z,12.90
2022-09-24T04:01:48.706Z,11.20
2022-09-24T04:02:48.720Z,12.50
2022-09-24T04:03:48.653Z,10.20
2022-09-24T04:04:48.649Z,12.20
2022-09-24T04:05:48.633Z,10.70
2022-09-24T04:06:48.641Z,10.80
2022-09-24T04:07:48.645Z,9.80
2022-09-24T04:08:48.613Z,8.90
2022-09-24T04:09:49.610Z,13.30
2022-09-24T04:10:48.606Z,9.10
2022-09-24T04:11:48.604Z,11.20
2022-09-24T04:12:48.617Z,9.30
2022-09-24T04:13:48.585Z,9.90
2022-09-24T04:14:48.679Z,11.40
2022-09-24T04:15:48.644Z,10.40
2022-09-24T04:16:48.560Z,11.30
2022-09-24T04:17:48.566Z,12.80
2022-09-24T04:18:48.566Z,12.10
2022-09-24T04:19:48.546Z,11.60
2022-09-24T04:20:48.537Z,12.90
2022-09-24T04:21:48.541Z,16.10
2022-09-24T04:22:48.546Z,11.30
2022-09-24T04:23:48.536Z,13.00
2022-09-24T04:24:48.521Z,12.20
2022-09-24T04:25:48.522Z,11.20
2022-09-24T04:26:48.518Z,12.60
2022-09-24T04:27:48.498Z,13.60
2022-09-24T04:28:48.521Z,13.30
2022-09-24T04:29:48.484Z,14.60
2022-09-24T04:30:48.544Z,13.50
2022-09-24T04:31:48.532Z,12.20
2022-09-24T04:32:48.469Z,11.80
2022-09-24T04:33:48.467Z,11.70
2022-09-24T04:34:48.477Z,11.40
2022-09-24T04:35:48.450Z,12.10
2022-09-24T04:36:48.453Z,10.80
2022-09-24T04:37:48.451Z,12.40
2022-09-24T04:38:48.438Z,13.50
2022-09-24T04:39:48.436Z,11.30
2022-09-24T04:40:48.449Z,11.50
2022-09-24T04:41:48.417Z,9.90
2022-09-24T04:42:48.412Z,11.30
2022-09-24T04:43:48.401Z,12.40
2022-09-24T04:44:50.781Z,11.00
2022-09-24T04:45:48.401Z,12.70
2022-09-24T04:46:48.427Z,11.20
2022-09-24T04:47:48.393Z,10.50
2022-09-24T04:48:48.356Z,15.30
2022-09-24T04:49:48.362Z,12.60
2022-09-24T04:50:48.390Z,11.60
2022-09-24T04:51:48.354Z,13.60
2022-09-24T04:52:48.346Z,12.90
2022-09-24T04:53:48.372Z,11.20
2022-09-24T04:54:48.334Z,11.20
2022-09-24T04:55:48.342Z,11.60
2022-09-24T04:56:48.333Z,11.40
2022-09-24T04:57:48.309Z,10.50
2022-09-24T04:58:48.306Z,10.30
2022-09-24T04:59:48.326Z,9.70
2022-09-24T05:00:48.297Z,10.70
2022-09-24T05:01:48.406Z,13.00
2022-09-24T05:02:48.528Z,13.40
2022-09-24T05:03:48.275Z,12.60
2022-09-24T05:04:48.288Z,12.00
2022-09-24T05:05:48.268Z,12.60
2022-09-24T05:06:48.285Z,12.30
2022-09-24T05:07:48.250Z,12.40
2022-09-24T05:08:48.256Z,11.40
2022-09-24T05:09:48.250Z,12.40
2022-09-24T05:10:48.237Z,14.10
2022-09-24T05:11:48.251Z,12.70
2022-09-24T05:12:48.218Z,11.90
2022-09-24T05:13:48.224Z,11.80
2022-09-24T05:14:48.228Z,13.00
2022-09-24T05:15:48.255Z,12.90
2022-09-24T05:16:48.222Z,14.30
2022-09-24T05:17:48.230Z,11.60
2022-09-24T05:18:48.189Z,10.50
2022-09-24T05:19:48.182Z,11.80
2022-09-24T05:20:48.185Z,11.30
2022-09-24T05:21:48.192Z,10.60
2022-09-24T05:22:48.164Z,14.40
2022-09-24T05:23:48.160Z,13.40
2022-09-24T05:24:48.159Z,12.10
2022-09-24T05:25:48.143Z,11.70
2022-09-24T05:26:48.147Z,11.80
2022-09-24T05:27:48.140Z,13.30
2022-09-24T05:28:48.127Z,14.40
2022-09-24T05:29:48.124Z,12.30
2022-09-24T05:30:48.116Z,10.80
2022-09-24T05:31:48.168Z,12.00
2022-09-24T05:32:48.121Z,12.00
2022-09-24T05:33:48.093Z,12.70
2022-09-24T05:34:48.170Z,12.00
2022-09-24T05:35:48.092Z,11.70
2022-09-24T05:36:48.080Z,12.10
2022-09-24T05:37:48.081Z,13.80
2022-09-24T05:38:48.073Z,10.90
2022-09-24T05:39:48.069Z,10.80
2022-09-24T05:40:48.202Z,11.80
2022-09-24T05:41:48.053Z,10.00
2022-09-24T05:42:48.048Z,9.30
2022-09-24T05:43:48.032Z,10.80
2022-09-24T05:44:52.126Z,10.30
2022-09-24T05:45:49.045Z,9.70
2022-09-24T05:46:49.077Z,11.20
2022-09-24T05:47:48.016Z,10.50
2022-09-24T05:48:47.992Z,11.10
2022-09-24T05:49:48.007Z,16.20
2022-09-24T05:50:47.996Z,11.30
2022-09-24T05:51:47.977Z,11.80
2022-09-24T05:52:48.019Z,13.90
2022-09-24T05:53:47.975Z,12.50
2022-09-24T05:54:47.996Z,14.20
2022-09-24T05:55:47.953Z,12.70
2022-09-24T05:56:47.967Z,13.40
2022-09-24T05:57:47.949Z,13.30
2022-09-24T05:58:47.937Z,13.80
2022-09-24T05:59:47.941Z,13.10
2022-09-24T06:00:47.926Z,16.10
2022-09-24T06:01:47.958Z,13.60
2022-09-24T06:02:48.025Z,10.90
2022-09-24T06:03:47.908Z,11.20
2022-09-24T06:04:47.901Z,12.70
2022-09-24T06:05:47.940Z,12.60
2022-09-24T06:06:47.894Z,14.40
2022-09-24T06:07:47.881Z,12.30
2022-09-24T06:08:47.874Z,14.60
2022-09-24T06:09:47.866Z,12.30
2022-09-24T06:10:48.190Z,12.60
2022-09-24T06:11:47.842Z,11.30
2022-09-24T06:12:47.862Z,12.00
2022-09-24T06:13:47.834Z,12.50
2022-09-24T06:14:47.821Z,11.00
2022-09-24T06:15:47.882Z,10.00
2022-09-24T06:16:47.822Z,10.00
2022-09-24T06:17:47.805Z,10.00
2022-09-24T06:18:47.813Z,12.20
2022-09-24T06:19:47.811Z,8.90
2022-09-24T06:20:47.795Z,10.20
2022-09-24T06:21:47.809Z,9.20
2022-09-24T06:22:47.779Z,9.90
2022-09-24T06:23:47.765Z,9.20
2022-09-24T06:24:47.761Z,11.40
2022-09-24T06:25:47.754Z,10.00
2022-09-24T06:26:47.771Z,8.30
2022-09-24T06:27:47.762Z,10.20
2022-09-24T06:28:47.760Z,8.60
2022-09-24T06:29:47.739Z,7.80
2022-09-24T06:30:47.745Z,9.40
2022-09-24T06:31:47.785Z,8.20
2022-09-24T06:32:47.739Z,9.60
2022-09-24T06:33:47.738Z,8.60
2022-09-24T06:34:47.706Z,8.60
2022-09-24T06:35:47.695Z,11.50
2022-09-24T06:36:47.710Z,9.60
2022-09-24T06:37:47.680Z,10.00
2022-09-24T06:38:47.695Z,10.80
2022-09-24T06:39:47.687Z,10.50
2022-09-24T06:40:47.696Z,12.00
2022-09-24T06:41:47.679Z,9.40
2022-09-24T06:42:47.657Z,10.10
2022-09-24T06:43:47.750Z,9.80
2022-09-24T06:44:47.638Z,10.40
2022-09-24T06:45:47.635Z,9.90
2022-09-24T06:46:47.693Z,9.70
2022-09-24T06:47:47.638Z,10.20
2022-09-24T06:48:47.638Z,11.70
2022-09-24T06:49:47.614Z,10.00
2022-09-24T06:50:47.616Z,12.60
2022-09-24T06:51:47.611Z,10.10
2022-09-24T06:52:47.586Z,11.90
2022-09-24T06:53:47.691Z,11.20
2022-09-24T06:54:47.587Z,9.50
2022-09-24T06:55:47.599Z,9.20
2022-09-24T06:56:47.607Z,11.10
2022-09-24T06:57:48.289Z,10.10
2022-09-24T06:58:47.688Z,10.40
2022-09-24T06:59:47.681Z,9.80
2022-09-24T07:00:47.569Z,9.50
2022-09-24T07:01:47.724Z,13.40
2022-09-24T07:02:47.532Z,10.20
2022-09-24T07:03:47.688Z,10.70
2022-09-24T07:04:47.544Z,9.80
2022-09-24T07:05:47.537Z,9.60
2022-09-24T07:06:47.559Z,10.80
2022-09-24T07:07:47.513Z,10.50
2022-09-24T07:08:47.601Z,10.00
2022-09-24T07:09:47.493Z,9.60
2022-09-24T07:10:47.492Z,11.90
2022-09-24T07:11:47.547Z,10.00
2022-09-24T07:12:47.470Z,9.90
2022-09-24T07:13:47.478Z,9.80
2022-09-24T07:14:48.122Z,11.40
2022-09-24T07:15:47.572Z,11.90
2022-09-24T07:16:47.544Z,10.20
2022-09-24T07:17:47.488Z,9.70
2022-09-24T07:18:47.438Z,10.60
2022-09-24T07:19:47.498Z,9.50
2022-09-24T07:20:47.431Z,9.70
2022-09-24T07:22:19.842Z,10.50
2022-09-24T07:22:47.406Z,8.60
2022-09-24T07:23:47.405Z,10.00
2022-09-24T07:24:47.432Z,10.80
2022-09-24T07:25:47.411Z,10.00
2022-09-24T07:26:47.378Z,9.60
2022-09-24T07:27:47.391Z,11.70
2022-09-24T07:28:47.363Z,10.80
2022-09-24T07:29:47.394Z,9.20
2022-09-24T07:30:47.391Z,9.10
2022-09-24T07:31:47.446Z,8.90
2022-09-24T07:32:47.332Z,8.60
2022-09-24T07:33:47.401Z,7.90
2022-09-24T07:34:47.321Z,7.90
2022-09-24T07:35:47.318Z,7.10
2022-09-24T07:36:47.389Z,7.30
2022-09-24T07:37:47.311Z,8.20
2022-09-24T07:38:47.302Z,8.20
2022-09-24T07:39:47.494Z,8.00
2022-09-24T07:40:47.384Z,8.00
2022-09-24T07:41:47.291Z,7.70
2022-09-24T07:42:47.311Z,7.70
2022-09-24T07:43:47.274Z,7.60
2022-09-24T07:44:47.355Z,7.20
2022-09-24T07:45:47.255Z,7.10
2022-09-24T07:46:47.388Z,7.10
2022-09-24T07:47:47.299Z,10.20
2022-09-24T07:48:47.234Z,7.60
2022-09-24T07:49:47.326Z,7.10
2022-09-24T07:50:47.272Z,8.70
2022-09-24T07:51:47.234Z,7.00
2022-09-24T07:52:47.265Z,7.70
2022-09-24T07:53:47.202Z,8.60
2022-09-24T07:54:47.194Z,8.50
2022-09-24T07:55:47.202Z,7.40
2022-09-24T07:56:47.222Z,6.70
2022-09-24T07:57:47.270Z,6.80
2022-09-24T07:58:47.185Z,9.40
2022-09-24T07:59:47.162Z,7.40
2022-09-24T08:00:47.217Z,7.80
2022-09-24T08:01:47.192Z,6.90
2022-09-24T08:02:47.153Z,7.90
2022-09-24T08:03:47.251Z,7.30
2022-09-24T08:04:47.137Z,6.60
2022-09-24T08:05:47.129Z,7.40
2022-09-24T08:06:47.776Z,6.40
2022-09-24T08:07:48.129Z,6.60
2022-09-24T08:08:47.133Z,6.20
2022-09-24T08:09:47.156Z,6.80
2022-09-24T08:10:47.100Z,6.80
2022-09-24T08:11:47.140Z,6.20
2022-09-24T08:12:47.163Z,6.40
2022-09-24T08:13:47.096Z,7.30
2022-09-24T08:14:47.088Z,6.60
2022-09-24T08:15:47.220Z,7.10
2022-09-24T08:16:47.061Z,7.90
2022-09-24T08:17:47.064Z,6.50
2022-09-24T08:18:47.137Z,7.20
2022-09-24T08:19:47.032Z,6.00
2022-09-24T08:20:47.040Z,6.40
2022-09-24T08:21:47.045Z,8.60
2022-09-24T08:22:47.137Z,8.20
2022-09-24T08:23:46.998Z,6.10
2022-09-24T08:24:47.001Z,6.90
2022-09-24T08:25:47.108Z,6.40
2022-09-24T08:26:46.981Z,8.90
2022-09-24T08:27:46.988Z,7.00
2022-09-24T08:29:19.420Z,7.80
2022-09-24T08:29:46.972Z,6.70
2022-09-24T08:30:47.056Z,7.30
2022-09-24T08:31:47.005Z,7.50
2022-09-24T08:32:46.940Z,8.50
2022-09-24T08:33:47.000Z,8.70
2022-09-24T08:34:46.936Z,7.90
2022-09-24T08:35:46.924Z,8.40
2022-09-24T08:36:46.917Z,6.50
2022-09-24T08:37:46.953Z,8.50
2022-09-24T08:38:46.973Z,6.90
2022-09-24T08:39:46.918Z,7.90
2022-09-24T08:40:47.058Z,6.80
2022-09-24T08:41:46.901Z,8.50
2022-09-24T08:42:46.912Z,9.30
2022-09-24T08:43:47.025Z,7.40
2022-09-24T08:44:46.992Z,7.60
2022-09-24T08:45:46.880Z,7.50
2022-09-24T08:46:47.018Z,9.30
2022-09-24T08:47:46.848Z,7.10
2022-09-24T08:48:46.855Z,7.20
2022-09-24T08:49:46.865Z,7.60
2022-09-24T08:50:46.994Z,7.80
2022-09-24T08:51:46.896Z,8.50
2022-09-24T08:52:46.904Z,7.60
2022-09-24T08:53:46.851Z,8.20
2022-09-24T08:54:46.824Z,7.40
2022-09-24T08:55:46.807Z,10.00
2022-09-24T08:56:46.820Z,8.00
2022-09-24T08:57:46.816Z,9.20
2022-09-24T08:58:46.785Z,7.60
2022-09-24T08:59:46.829Z,8.30
2022-09-24T09:00:46.776Z,7.90
2022-09-24T09:01:46.853Z,9.00
2022-09-24T09:02:46.968Z,8.90
2022-09-24T09:04:18.723Z,8.10
2022-09-24T09:04:46.829Z,8.20
2022-09-24T09:05:49.380Z,11.40
2022-09-24T09:06:47.746Z,9.00
2022-09-24T09:07:46.739Z,9.60
2022-09-24T09:09:05.537Z,9.60
2022-09-24T09:09:48.767Z,10.50
2022-09-24T09:10:46.725Z,11.10
2022-09-24T09:11:46.756Z,10.00
2022-09-24T09:12:46.719Z,9.30
2022-09-24T09:13:47.599Z,8.80
2022-09-24T09:14:46.723Z,9.10
2022-09-24T09:15:46.793Z,8.70
2022-09-24T09:16:46.687Z,9.50
2022-09-24T09:17:46.678Z,10.00
2022-09-24T09:18:46.837Z,10.10
2022-09-24T09:19:50.368Z,10.20
2022-09-24T09:20:47.704Z,9.00
2022-09-24T09:21:46.703Z,16.10
2022-09-24T09:22:46.731Z,10.50
2022-09-24T09:23:46.650Z,11.50
2022-09-24T09:24:46.688Z,8.10
2022-09-24T09:25:46.636Z,8.80
2022-09-24T09:26:46.629Z,9.30
2022-09-24T09:27:46.641Z,9.00
2022-09-24T09:28:46.614Z,9.80
2022-09-24T09:29:46.671Z,9.50
2022-09-24T09:30:46.696Z,10.20
2022-09-24T09:31:46.662Z,8.70
2022-09-24T09:32:46.615Z,9.50
2022-09-24T09:33:46.640Z,10.20
2022-09-24T09:34:46.606Z,10.80
2022-09-24T09:35:46.580Z,9.60
2022-09-24T09:36:46.558Z,9.40
2022-09-24T09:37:46.558Z,9.50
2022-09-24T09:38:46.570Z,14.10
2022-09-24T09:39:46.573Z,9.90
2022-09-24T09:40:46.816Z,13.80
2022-09-24T09:41:46.510Z,10.60
2022-09-24T09:42:46.532Z,11.30
2022-09-24T09:43:46.565Z,12.10
2022-09-24T09:44:46.527Z,12.50
2022-09-24T09:45:46.525Z,9.90
2022-09-24T09:46:46.641Z,12.00
2022-09-24T09:47:46.507Z,12.00
2022-09-24T09:48:46.487Z,12.20
2022-09-24T09:49:46.467Z,10.30
2022-09-24T09:50:46.500Z,10.90
2022-09-24T09:51:46.462Z,11.50
2022-09-24T09:52:46.502Z,11.80
2022-09-24T09:53:46.476Z,10.60
2022-09-24T09:54:46.443Z,13.00
2022-09-24T09:55:46.483Z,13.00
2022-09-24T09:56:46.436Z,12.20
2022-09-24T09:57:46.432Z,10.40
2022-09-24T09:58:46.423Z,12.30
2022-09-24T09:59:46.421Z,11.30
2022-09-24T10:00:46.719Z,14.10
2022-09-24T10:01:46.548Z,12.00
2022-09-24T10:02:46.665Z,11.30
2022-09-24T10:03:46.486Z,12.20
2022-09-24T10:04:46.419Z,10.70
2022-09-24T10:05:46.395Z,10.40
2022-09-24T10:06:46.394Z,12.20
2022-09-24T10:07:46.363Z,11.00
2022-09-24T10:08:46.339Z,13.50
2022-09-24T10:09:46.461Z,10.50
2022-09-24T10:10:46.333Z,10.80
2022-09-24T10:11:47.192Z,11.10
2022-09-24T10:12:46.332Z,10.60
2022-09-24T10:13:46.320Z,11.20
2022-09-24T10:14:46.320Z,12.40
2022-09-24T10:15:46.393Z,9.30
2022-09-24T10:16:46.416Z,10.80
2022-09-24T10:17:46.336Z,10.20
2022-09-24T10:18:46.278Z,10.10
2022-09-24T10:19:46.311Z,12.10
2022-09-24T10:20:46.336Z,10.50
2022-09-24T10:21:46.435Z,10.20
2022-09-24T10:22:46.267Z,10.40
2022-09-24T10:23:46.251Z,12.70
2022-09-24T10:24:46.259Z,10.30
2022-09-24T10:25:46.237Z,9.90
2022-09-24T10:26:46.255Z,10.00
2022-09-24T10:27:46.305Z,10.10
2022-09-24T10:28:46.226Z,9.60
2022-09-24T10:29:46.227Z,10.00
2022-09-24T10:30:46.306Z,9.30
2022-09-24T10:31:46.267Z,9.30
2022-09-24T10:32:46.203Z,10.80
2022-09-24T10:33:46.200Z,9.30
2022-09-24T10:34:46.215Z,11.20
2022-09-24T10:35:46.179Z,11.30
2022-09-24T10:36:46.203Z,10.50
2022-09-24T10:37:46.209Z,10.30
2022-09-24T10:38:46.196Z,10.60
2022-09-24T10:39:46.222Z,11.00
2022-09-24T10:40:46.237Z,9.20
2022-09-24T10:41:46.150Z,11.30
2022-09-24T10:42:46.155Z,11.00
2022-09-24T10:43:46.151Z,9.10
2022-09-24T10:44:49.321Z,10.00
2022-09-24T10:45:48.168Z,7.50
2022-09-24T10:46:46.235Z,8.50
2022-09-24T10:47:46.123Z,7.60
2022-09-24T10:48:46.171Z,9.60
2022-09-24T10:49:46.108Z,8.60
2022-09-24T10:50:46.124Z,8.10
2022-09-24T10:51:46.075Z,10.00
2022-09-24T10:52:46.100Z,9.10
2022-09-24T10:53:47.095Z,7.90
2022-09-24T10:54:46.067Z,7.30
2022-09-24T10:55:46.059Z,8.80
2022-09-24T10:56:46.721Z,7.80
2022-09-24T10:57:47.051Z,8.50
2022-09-24T10:58:46.119Z,8.00
2022-09-24T10:59:46.055Z,9.40
2022-09-24T11:00:46.047Z,8.00
2022-09-24T11:01:46.132Z,9.40
2022-09-24T11:02:46.074Z,8.20
2022-09-24T11:03:46.110Z,7.90
2022-09-24T11:04:46.011Z,7.50
2022-09-24T11:05:46.038Z,9.40
2022-09-24T11:06:46.012Z,10.50
2022-09-24T11:07:46.123Z,6.90
2022-09-24T11:08:46.002Z,7.80
2022-09-24T11:09:45.976Z,8.90
2022-09-24T11:10:46.069Z,9.50
2022-09-24T11:11:46.065Z,8.10
2022-09-24T11:12:45.954Z,7.50
2022-09-24T11:13:50.453Z,7.50
2022-09-24T11:14:47.945Z,7.80
2022-09-24T11:15:46.054Z,7.30
2022-09-24T11:16:46.687Z,8.60
2022-09-24T11:17:45.927Z,8.70
2022-09-24T11:18:45.945Z,10.40
2022-09-24T11:19:45.926Z,7.10
2022-09-24T11:20:45.948Z,8.60
2022-09-24T11:21:45.917Z,10.60
2022-09-24T11:22:45.907Z,9.60
2022-09-24T11:23:46.070Z,8.10
2022-09-24T11:24:45.902Z,12.70
2022-09-24T11:25:45.950Z,10.10
2022-09-24T11:26:45.899Z,11.00
2022-09-24T11:27:45.927Z,9.60
2022-09-24T11:28:45.855Z,10.50
2022-09-24T11:29:45.915Z,11.40
2022-09-24T11:30:45.904Z,9.20
2022-09-24T11:31:45.906Z,11.00
2022-09-24T11:32:45.912Z,9.70
2022-09-24T11:33:45.906Z,12.20
2022-09-24T11:34:45.937Z,10.90
2022-09-24T11:35:45.854Z,9.40
2022-09-24T11:36:45.811Z,9.00
2022-09-24T11:37:45.895Z,9.70
2022-09-24T11:38:45.922Z,9.20
2022-09-24T11:39:45.923Z,9.20
2022-09-24T11:40:45.924Z,10.50
2022-09-24T11:41:45.831Z,9.00
2022-09-24T11:42:45.817Z,9.40
2022-09-24T11:43:45.842Z,9.10
2022-09-24T11:44:45.784Z,8.90
2022-09-24T11:45:45.801Z,7.70
2022-09-24T11:46:45.858Z,10.50
2022-09-24T11:47:45.778Z,8.60
2022-09-24T11:48:45.800Z,17.30
2022-09-24T11:49:45.791Z,15.40
2022-09-24T11:50:47.853Z,9.50
2022-09-24T11:51:46.800Z,10.80
2022-09-24T11:52:45.738Z,6.90
2022-09-24T11:53:45.728Z,9.10
2022-09-24T11:54:45.870Z,10.30
2022-09-24T11:55:45.711Z,11.70
2022-09-24T11:56:45.828Z,7.30
2022-09-24T11:57:45.699Z,8.80
2022-09-24T11:58:45.687Z,8.00
2022-09-24T11:59:45.678Z,8.90
2022-09-24T12:00:45.683Z,7.20
2022-09-24T12:01:45.730Z,8.50
2022-09-24T12:02:45.695Z,12.10
2022-09-24T12:03:45.673Z,11.60
2022-09-24T12:04:45.673Z,8.80
2022-09-24T12:05:45.652Z,9.20
2022-09-24T12:06:45.658Z,9.20
2022-09-24T12:07:45.652Z,8.70
2022-09-24T12:08:45.653Z,10.10
2022-09-24T12:09:45.647Z,12.70
2022-09-24T12:10:45.663Z,13.10
2022-09-24T12:11:45.603Z,10.30
2022-09-24T12:12:45.653Z,13.30
2022-09-24T12:13:45.599Z,13.90
2022-09-24T12:14:45.648Z,11.40
2022-09-24T12:15:45.637Z,11.50
2022-09-24T12:16:45.573Z,12.00
2022-09-24T12:17:45.591Z,11.70
2022-09-24T12:18:45.580Z,8.20
2022-09-24T12:19:45.556Z,12.10
2022-09-24T12:20:45.612Z,12.30
2022-09-24T12:21:45.552Z,9.50
2022-09-24T12:22:45.527Z,10.60
2022-09-24T12:23:45.644Z,9.70
2022-09-24T12:24:45.656Z,8.80
2022-09-24T12:25:45.508Z,11.40
2022-09-24T12:26:45.517Z,10.10
2022-09-24T12:27:45.550Z,7.30
2022-09-24T12:28:45.540Z,8.50
2022-09-24T12:29:45.491Z,10.90
2022-09-24T12:30:45.554Z,9.00
2022-09-24T12:31:45.548Z,9.00
2022-09-24T12:32:45.456Z,9.30
2022-09-24T12:33:45.458Z,7.70
2022-09-24T12:34:45.481Z,8.30
2022-09-24T12:35:45.513Z,7.40
2022-09-24T12:36:45.574Z,7.60
2022-09-24T12:37:45.429Z,8.80
2022-09-24T12:38:45.457Z,8.10
2022-09-24T12:39:45.696Z,5.50
2022-09-24T12:40:45.655Z,5.60
2022-09-24T12:41:45.448Z,6.40
2022-09-24T12:42:45.399Z,10.00
2022-09-24T12:43:45.447Z,9.10
2022-09-24T12:44:45.540Z,6.30
2022-09-24T12:45:45.454Z,5.70
2022-09-24T12:46:45.402Z,8.20
2022-09-24T12:47:45.382Z,13.50
2022-09-24T12:48:45.387Z,8.90
2022-09-24T12:49:45.356Z,8.10
2022-09-24T12:50:45.332Z,8.30
2022-09-24T12:51:45.427Z,8.50
2022-09-24T12:52:45.321Z,7.50
2022-09-24T12:53:45.347Z,7.20
2022-09-24T12:54:45.580Z,11.50
2022-09-24T12:55:45.350Z,7.10
2022-09-24T12:56:45.300Z,6.10
2022-09-24T12:57:45.296Z,4.80
2022-09-24T12:58:45.513Z,5.30
2022-09-24T12:59:45.276Z,6.50
2022-09-24T13:00:45.303Z,7.50
2022-09-24T13:01:45.419Z,7.10
2022-09-24T13:02:45.511Z,4.90
2022-09-24T13:03:47.451Z,6.40
2022-09-24T13:04:46.278Z,5.30
2022-09-24T13:05:45.265Z,4.80
2022-09-24T13:06:46.236Z,5.00